sensor_id;sensor_type;location;lat;lon;timestamp;temperature;humidity
10057;DHT22;5068;51.286;7.518;2023-02-25T00:01:11;4.20;62.60
10057;DHT22;5068;51.286;7.518;2023-02-25T00:02:45;4.10;62.80
10057;DHT22;5068;51.286;7.518;2023-02-25T00:04:19;4.10;62.80
10057;DHT22;5068;51.286;7.518;2023-02-25T00:05:52;4.10;62.70
10057;DHT22;5068;51.286;7.518;2023-02-25T00:07:25;4.10;62.60
10057;DHT22;5068;51.286;7.518;2023-02-25T00:08:59;4.10;62.60
10057;DHT22;5068;51.286;7.518;2023-02-25T00:10:33;4.10;62.40
10057;DHT22;5068;51.286;7.518;2023-02-25T00:12:08;4.10;62.60
10057;DHT22;5068;51.286;7.518;2023-02-25T00:13:43;4.10;62.70
10057;DHT22;5068;51.286;7.518;2023-02-25T00:15:16;4.10;62.50
10057;DHT22;5068;51.286;7.518;2023-02-25T00:16:55;4.10;62.60
10057;DHT22;5068;51.286;7.518;2023-02-25T00:18:35;4.10;62.60
10057;DHT22;5068;51.286;7.518;2023-02-25T00:20:17;4.10;62.70
10057;DHT22;5068;51.286;7.518;2023-02-25T00:21:58;4.10;62.60
10057;DHT22;5068;51.286;7.518;2023-02-25T00:23:36;4.10;62.50
10057;DHT22;5068;51.286;7.518;2023-02-25T00:25:20;4.10;62.30
10057;DHT22;5068;51.286;7.518;2023-02-25T00:27:01;4.10;62.50
10057;DHT22;5068;51.286;7.518;2023-02-25T00:28:44;4.10;62.50
10057;DHT22;5068;51.286;7.518;2023-02-25T00:30:25;4.10;62.40
10057;DHT22;5068;51.286;7.518;2023-02-25T00:32:02;4.10;62.40
10057;DHT22;5068;51.286;7.518;2023-02-25T00:33:41;4.10;62.40
10057;DHT22;5068;51.286;7.518;2023-02-25T00:35:21;4.10;62.30
10057;DHT22;5068;51.286;7.518;2023-02-25T00:37:05;4.10;62.40
10057;DHT22;5068;51.286;7.518;2023-02-25T00:38:43;4.10;62.50
10057;DHT22;5068;51.286;7.518;2023-02-25T00:40:27;4.10;62.50
10057;DHT22;5068;51.286;7.518;2023-02-25T00:42:08;4.10;62.60
10057;DHT22;5068;51.286;7.518;2023-02-25T00:43:51;4.10;62.70
10057;DHT22;5068;51.286;7.518;2023-02-25T00:45:33;4.10;62.80
10057;DHT22;5068;51.286;7.518;2023-02-25T00:47:15;4.10;62.70
10057;DHT22;5068;51.286;7.518;2023-02-25T00:48:57;4.10;62.50
10057;DHT22;5068;51.286;7.518;2023-02-25T00:50:31;4.00;62.20
10057;DHT22;5068;51.286;7.518;2023-02-25T00:52:03;4.10;62.10
10057;DHT22;5068;51.286;7.518;2023-02-25T00:53:38;4.00;62.10
10057;DHT22;5068;51.286;7.518;2023-02-25T00:55:15;4.00;62.20
10057;DHT22;5068;51.286;7.518;2023-02-25T00:56:55;4.00;62.10
10057;DHT22;5068;51.286;7.518;2023-02-25T00:58:34;4.10;62.30
10057;DHT22;5068;51.286;7.518;2023-02-25T01:00:14;4.00;63.10
10057;DHT22;5068;51.286;7.518;2023-02-25T01:01:52;4.00;62.50
10057;DHT22;5068;51.286;7.518;2023-02-25T01:03:30;4.00;63.10
10057;DHT22;5068;51.286;7.518;2023-02-25T01:05:07;4.00;62.60
10057;DHT22;5068;51.286;7.518;2023-02-25T01:06:45;4.00;62.80
10057;DHT22;5068;51.286;7.518;2023-02-25T01:08:22;4.00;62.70
10057;DHT22;5068;51.286;7.518;2023-02-25T01:10:02;4.00;62.30
10057;DHT22;5068;51.286;7.518;2023-02-25T01:11:45;4.00;62.30
10057;DHT22;5068;51.286;7.518;2023-02-25T01:13:23;4.00;62.40
10057;DHT22;5068;51.286;7.518;2023-02-25T01:14:59;4.00;62.40
10057;DHT22;5068;51.286;7.518;2023-02-25T01:16:41;4.00;62.40
10057;DHT22;5068;51.286;7.518;2023-02-25T01:18:22;4.00;62.50
10057;DHT22;5068;51.286;7.518;2023-02-25T01:20:05;4.00;62.50
10057;DHT22;5068;51.286;7.518;2023-02-25T01:21:47;4.00;62.50
10057;DHT22;5068;51.286;7.518;2023-02-25T01:23:25;4.00;62.30
10057;DHT22;5068;51.286;7.518;2023-02-25T01:25:09;4.00;62.20
10057;DHT22;5068;51.286;7.518;2023-02-25T01:26:49;4.00;62.10
10057;DHT22;5068;51.286;7.518;2023-02-25T01:28:28;4.00;61.90
10057;DHT22;5068;51.286;7.518;2023-02-25T01:30:08;4.00;62.20
10057;DHT22;5068;51.286;7.518;2023-02-25T01:31:46;4.00;62.30
10057;DHT22;5068;51.286;7.518;2023-02-25T01:33:28;4.00;62.30
10057;DHT22;5068;51.286;7.518;2023-02-25T01:35:06;4.00;62.40
10057;DHT22;5068;51.286;7.518;2023-02-25T01:36:43;4.00;62.40
10057;DHT22;5068;51.286;7.518;2023-02-25T01:38:22;3.90;62.30
10057;DHT22;5068;51.286;7.518;2023-02-25T01:40:00;4.00;62.50
10057;DHT22;5068;51.286;7.518;2023-02-25T01:41:40;4.00;62.50
10057;DHT22;5068;51.286;7.518;2023-02-25T01:43:19;3.90;62.40
10057;DHT22;5068;51.286;7.518;2023-02-25T01:45:26;3.90;62.30
10057;DHT22;5068;51.286;7.518;2023-02-25T01:47:16;3.90;62.50
10057;DHT22;5068;51.286;7.518;2023-02-25T01:48:59;3.90;62.30
10057;DHT22;5068;51.286;7.518;2023-02-25T01:50:44;3.90;62.40
10057;DHT22;5068;51.286;7.518;2023-02-25T01:52:27;3.90;62.30
10057;DHT22;5068;51.286;7.518;2023-02-25T01:54:06;3.90;62.10
10057;DHT22;5068;51.286;7.518;2023-02-25T01:55:46;3.90;62.10
10057;DHT22;5068;51.286;7.518;2023-02-25T01:57:26;3.90;61.90
10057;DHT22;5068;51.286;7.518;2023-02-25T01:59:04;3.90;62.00
10057;DHT22;5068;51.286;7.518;2023-02-25T02:00:44;3.90;61.90
10057;DHT22;5068;51.286;7.518;2023-02-25T02:02:22;3.90;61.90
10057;DHT22;5068;51.286;7.518;2023-02-25T02:04:13;3.90;61.90
10057;DHT22;5068;51.286;7.518;2023-02-25T02:05:58;3.90;62.00
10057;DHT22;5068;51.286;7.518;2023-02-25T02:07:44;3.90;62.00
10057;DHT22;5068;51.286;7.518;2023-02-25T02:09:24;3.90;62.00
10057;DHT22;5068;51.286;7.518;2023-02-25T02:11:03;3.90;62.10
10057;DHT22;5068;51.286;7.518;2023-02-25T02:12:41;3.90;62.20
10057;DHT22;5068;51.286;7.518;2023-02-25T02:14:27;3.90;62.30
10057;DHT22;5068;51.286;7.518;2023-02-25T02:16:23;3.90;62.30
10057;DHT22;5068;51.286;7.518;2023-02-25T02:18:12;3.90;62.30
10057;DHT22;5068;51.286;7.518;2023-02-25T02:20:02;3.90;62.40
10057;DHT22;5068;51.286;7.518;2023-02-25T02:21:54;3.90;62.30
10057;DHT22;5068;51.286;7.518;2023-02-25T02:24:16;3.90;62.30
10057;DHT22;5068;51.286;7.518;2023-02-25T02:26:48;3.90;62.30
10057;DHT22;5068;51.286;7.518;2023-02-25T02:28:56;3.90;62.20
10057;DHT22;5068;51.286;7.518;2023-02-25T02:31:17;3.90;62.20
10057;DHT22;5068;51.286;7.518;2023-02-25T02:33:12;3.90;62.20
10057;DHT22;5068;51.286;7.518;2023-02-25T02:35:03;3.90;62.20
10057;DHT22;5068;51.286;7.518;2023-02-25T02:36:53;3.90;62.20
10057;DHT22;5068;51.286;7.518;2023-02-25T02:38:47;3.90;62.20
10057;DHT22;5068;51.286;7.518;2023-02-25T02:40:42;3.90;62.40
10057;DHT22;5068;51.286;7.518;2023-02-25T02:42:31;3.90;62.40
10057;DHT22;5068;51.286;7.518;2023-02-25T02:44:17;3.90;62.40
10057;DHT22;5068;51.286;7.518;2023-02-25T02:46:05;3.90;62.40
10057;DHT22;5068;51.286;7.518;2023-02-25T02:47:51;3.90;62.50
10057;DHT22;5068;51.286;7.518;2023-02-25T02:49:37;3.90;62.60
10057;DHT22;5068;51.286;7.518;2023-02-25T02:51:22;3.80;62.50
10057;DHT22;5068;51.286;7.518;2023-02-25T02:53:06;3.90;62.60
10057;DHT22;5068;51.286;7.518;2023-02-25T02:54:55;3.90;62.60
10057;DHT22;5068;51.286;7.518;2023-02-25T02:56:42;3.90;62.60
10057;DHT22;5068;51.286;7.518;2023-02-25T02:58:24;3.80;62.40
10057;DHT22;5068;51.286;7.518;2023-02-25T03:00:11;3.90;62.50
10057;DHT22;5068;51.286;7.518;2023-02-25T03:02:02;3.80;62.50
10057;DHT22;5068;51.286;7.518;2023-02-25T03:03:45;3.90;62.60
10057;DHT22;5068;51.286;7.518;2023-02-25T03:05:30;3.90;62.70
10057;DHT22;5068;51.286;7.518;2023-02-25T03:07:09;3.90;62.80
10057;DHT22;5068;51.286;7.518;2023-02-25T03:08:50;3.90;62.80
10057;DHT22;5068;51.286;7.518;2023-02-25T03:10:31;3.80;62.70
10057;DHT22;5068;51.286;7.518;2023-02-25T03:12:09;3.90;62.90
10057;DHT22;5068;51.286;7.518;2023-02-25T03:13:49;3.80;63.00
10057;DHT22;5068;51.286;7.518;2023-02-25T03:15:28;3.80;63.10
10057;DHT22;5068;51.286;7.518;2023-02-25T03:17:10;3.80;63.30
10057;DHT22;5068;51.286;7.518;2023-02-25T03:18:53;3.80;63.40
10057;DHT22;5068;51.286;7.518;2023-02-25T03:20:41;3.80;63.50
10057;DHT22;5068;51.286;7.518;2023-02-25T03:22:21;3.80;63.50
10057;DHT22;5068;51.286;7.518;2023-02-25T03:24:04;3.80;63.60
10057;DHT22;5068;51.286;7.518;2023-02-25T03:25:48;3.80;63.50
10057;DHT22;5068;51.286;7.518;2023-02-25T03:27:36;3.80;63.70
10057;DHT22;5068;51.286;7.518;2023-02-25T03:29:17;3.80;63.90
10057;DHT22;5068;51.286;7.518;2023-02-25T03:31:02;3.80;64.00
10057;DHT22;5068;51.286;7.518;2023-02-25T03:32:50;3.70;63.90
10057;DHT22;5068;51.286;7.518;2023-02-25T03:34:32;3.80;64.10
10057;DHT22;5068;51.286;7.518;2023-02-25T03:36:16;3.70;64.00
10057;DHT22;5068;51.286;7.518;2023-02-25T03:38:03;3.70;63.90
10057;DHT22;5068;51.286;7.518;2023-02-25T03:39:45;3.80;64.00
10057;DHT22;5068;51.286;7.518;2023-02-25T03:41:31;3.80;63.90
10057;DHT22;5068;51.286;7.518;2023-02-25T03:43:16;3.70;63.80
10057;DHT22;5068;51.286;7.518;2023-02-25T03:45:00;3.70;63.90
10057;DHT22;5068;51.286;7.518;2023-02-25T03:46:42;3.70;64.00
10057;DHT22;5068;51.286;7.518;2023-02-25T03:48:24;3.70;64.00
10057;DHT22;5068;51.286;7.518;2023-02-25T03:50:07;3.70;64.10
10057;DHT22;5068;51.286;7.518;2023-02-25T03:51:56;3.70;64.10
10057;DHT22;5068;51.286;7.518;2023-02-25T03:53:37;3.70;63.80
10057;DHT22;5068;51.286;7.518;2023-02-25T03:55:17;3.70;63.80
10057;DHT22;5068;51.286;7.518;2023-02-25T03:56:55;3.70;63.60
10057;DHT22;5068;51.286;7.518;2023-02-25T03:58:40;3.80;63.80
10057;DHT22;5068;51.286;7.518;2023-02-25T04:00:24;3.70;63.80
10057;DHT22;5068;51.286;7.518;2023-02-25T04:02:04;3.70;64.60
10057;DHT22;5068;51.286;7.518;2023-02-25T04:03:43;3.70;63.80
10057;DHT22;5068;51.286;7.518;2023-02-25T04:05:21;3.70;63.90
10057;DHT22;5068;51.286;7.518;2023-02-25T04:07:01;3.70;63.90
10057;DHT22;5068;51.286;7.518;2023-02-25T04:08:39;3.70;64.00
10057;DHT22;5068;51.286;7.518;2023-02-25T04:10:17;3.70;64.10
10057;DHT22;5068;51.286;7.518;2023-02-25T04:11:56;3.70;64.20
10057;DHT22;5068;51.286;7.518;2023-02-25T04:13:35;3.70;64.30
10057;DHT22;5068;51.286;7.518;2023-02-25T04:15:16;3.70;65.10
10057;DHT22;5068;51.286;7.518;2023-02-25T04:16:56;3.70;64.30
10057;DHT22;5068;51.286;7.518;2023-02-25T04:18:37;3.70;64.20
10057;DHT22;5068;51.286;7.518;2023-02-25T04:20:15;3.70;64.10
10057;DHT22;5068;51.286;7.518;2023-02-25T04:21:53;3.80;64.20
10057;DHT22;5068;51.286;7.518;2023-02-25T04:23:30;3.80;64.20
10057;DHT22;5068;51.286;7.518;2023-02-25T04:25:09;3.80;64.20
10057;DHT22;5068;51.286;7.518;2023-02-25T04:26:47;3.70;64.20
10057;DHT22;5068;51.286;7.518;2023-02-25T04:28:31;3.70;64.20
10057;DHT22;5068;51.286;7.518;2023-02-25T04:30:10;3.70;64.30
10057;DHT22;5068;51.286;7.518;2023-02-25T04:31:48;3.70;64.30
10057;DHT22;5068;51.286;7.518;2023-02-25T04:33:25;3.80;64.40
10057;DHT22;5068;51.286;7.518;2023-02-25T04:35:02;3.70;64.20
10057;DHT22;5068;51.286;7.518;2023-02-25T04:36:45;3.80;64.30
10057;DHT22;5068;51.286;7.518;2023-02-25T04:38:21;3.80;64.20
10057;DHT22;5068;51.286;7.518;2023-02-25T04:39:59;3.70;64.10
10057;DHT22;5068;51.286;7.518;2023-02-25T04:41:35;3.80;64.20
10057;DHT22;5068;51.286;7.518;2023-02-25T04:43:13;3.80;64.20
10057;DHT22;5068;51.286;7.518;2023-02-25T04:44:53;3.80;64.30
10057;DHT22;5068;51.286;7.518;2023-02-25T04:46:31;3.80;64.40
10057;DHT22;5068;51.286;7.518;2023-02-25T04:48:10;3.80;64.30
10057;DHT22;5068;51.286;7.518;2023-02-25T04:49:48;3.80;64.20
10057;DHT22;5068;51.286;7.518;2023-02-25T04:51:25;3.80;64.10
10057;DHT22;5068;51.286;7.518;2023-02-25T04:53:06;3.80;64.10
10057;DHT22;5068;51.286;7.518;2023-02-25T04:54:49;3.80;64.20
10057;DHT22;5068;51.286;7.518;2023-02-25T04:56:27;3.80;64.30
10057;DHT22;5068;51.286;7.518;2023-02-25T04:58:04;3.80;64.20
10057;DHT22;5068;51.286;7.518;2023-02-25T04:59:43;3.80;64.30
10057;DHT22;5068;51.286;7.518;2023-02-25T05:01:20;3.80;64.30
10057;DHT22;5068;51.286;7.518;2023-02-25T05:02:57;3.80;64.10
10057;DHT22;5068;51.286;7.518;2023-02-25T05:04:38;3.80;64.00
10057;DHT22;5068;51.286;7.518;2023-02-25T05:06:15;3.80;63.90
10057;DHT22;5068;51.286;7.518;2023-02-25T05:07:52;3.80;63.80
10057;DHT22;5068;51.286;7.518;2023-02-25T05:09:34;3.80;63.80
10057;DHT22;5068;51.286;7.518;2023-02-25T05:11:11;3.80;63.80
10057;DHT22;5068;51.286;7.518;2023-02-25T05:12:56;3.80;63.90
10057;DHT22;5068;51.286;7.518;2023-02-25T05:14:35;3.80;64.10
10057;DHT22;5068;51.286;7.518;2023-02-25T05:16:14;3.80;64.10
10057;DHT22;5068;51.286;7.518;2023-02-25T05:17:53;3.80;64.70
10057;DHT22;5068;51.286;7.518;2023-02-25T05:19:30;3.80;63.90
10057;DHT22;5068;51.286;7.518;2023-02-25T05:21:08;3.80;63.90
10057;DHT22;5068;51.286;7.518;2023-02-25T05:22:46;3.80;63.90
10057;DHT22;5068;51.286;7.518;2023-02-25T05:24:26;3.80;63.90
10057;DHT22;5068;51.286;7.518;2023-02-25T05:26:08;3.80;63.90
10057;DHT22;5068;51.286;7.518;2023-02-25T05:27:46;3.70;63.70
10057;DHT22;5068;51.286;7.518;2023-02-25T05:29:26;3.80;63.90
10057;DHT22;5068;51.286;7.518;2023-02-25T05:31:05;3.80;63.90
10057;DHT22;5068;51.286;7.518;2023-02-25T05:32:43;3.70;63.70
10057;DHT22;5068;51.286;7.518;2023-02-25T05:34:21;3.70;63.80
10057;DHT22;5068;51.286;7.518;2023-02-25T05:35:59;3.80;64.60
10057;DHT22;5068;51.286;7.518;2023-02-25T05:37:36;3.80;63.70
10057;DHT22;5068;51.286;7.518;2023-02-25T05:39:13;3.80;63.70
10057;DHT22;5068;51.286;7.518;2023-02-25T05:40:54;3.80;63.50
10057;DHT22;5068;51.286;7.518;2023-02-25T05:42:32;3.80;63.50
10057;DHT22;5068;51.286;7.518;2023-02-25T05:44:10;3.80;63.50
10057;DHT22;5068;51.286;7.518;2023-02-25T05:45:52;3.80;63.40
10057;DHT22;5068;51.286;7.518;2023-02-25T05:47:30;3.80;63.50
10057;DHT22;5068;51.286;7.518;2023-02-25T05:49:11;3.80;63.60
10057;DHT22;5068;51.286;7.518;2023-02-25T05:50:49;3.80;63.80
10057;DHT22;5068;51.286;7.518;2023-02-25T05:52:28;3.80;63.90
10057;DHT22;5068;51.286;7.518;2023-02-25T05:54:05;3.70;63.90
10057;DHT22;5068;51.286;7.518;2023-02-25T05:55:42;3.80;64.10
10057;DHT22;5068;51.286;7.518;2023-02-25T05:57:23;3.80;64.00
10057;DHT22;5068;51.286;7.518;2023-02-25T05:59:04;3.80;64.00
10057;DHT22;5068;51.286;7.518;2023-02-25T06:00:41;3.80;64.00
10057;DHT22;5068;51.286;7.518;2023-02-25T06:02:18;3.80;64.00
10057;DHT22;5068;51.286;7.518;2023-02-25T06:03:56;3.80;64.00
10057;DHT22;5068;51.286;7.518;2023-02-25T06:05:39;3.80;63.70
10057;DHT22;5068;51.286;7.518;2023-02-25T06:07:20;3.80;63.50
10057;DHT22;5068;51.286;7.518;2023-02-25T06:08:57;3.70;63.40
10057;DHT22;5068;51.286;7.518;2023-02-25T06:10:36;3.80;63.50
10057;DHT22;5068;51.286;7.518;2023-02-25T06:12:14;3.80;63.50
10057;DHT22;5068;51.286;7.518;2023-02-25T06:13:53;3.80;63.50
10057;DHT22;5068;51.286;7.518;2023-02-25T06:15:35;3.80;63.60
10057;DHT22;5068;51.286;7.518;2023-02-25T06:17:13;3.70;63.40
10057;DHT22;5068;51.286;7.518;2023-02-25T06:18:50;3.80;63.60
10057;DHT22;5068;51.286;7.518;2023-02-25T06:20:29;3.80;63.70
10057;DHT22;5068;51.286;7.518;2023-02-25T06:22:08;3.80;63.80
10057;DHT22;5068;51.286;7.518;2023-02-25T06:23:46;3.80;63.80
10057;DHT22;5068;51.286;7.518;2023-02-25T06:25:24;3.80;63.70
10057;DHT22;5068;51.286;7.518;2023-02-25T06:27:03;3.80;63.50
10057;DHT22;5068;51.286;7.518;2023-02-25T06:28:41;3.80;63.50
10057;DHT22;5068;51.286;7.518;2023-02-25T06:30:18;3.80;63.50
10057;DHT22;5068;51.286;7.518;2023-02-25T06:31:57;3.80;63.50
10057;DHT22;5068;51.286;7.518;2023-02-25T06:33:35;3.80;63.60
10057;DHT22;5068;51.286;7.518;2023-02-25T06:35:13;3.80;63.60
10057;DHT22;5068;51.286;7.518;2023-02-25T06:36:51;3.80;63.50
10057;DHT22;5068;51.286;7.518;2023-02-25T06:38:27;3.80;63.60
10057;DHT22;5068;51.286;7.518;2023-02-25T06:40:04;3.70;63.70
10057;DHT22;5068;51.286;7.518;2023-02-25T06:41:44;3.80;63.90
10057;DHT22;5068;51.286;7.518;2023-02-25T06:43:22;3.80;63.80
10057;DHT22;5068;51.286;7.518;2023-02-25T06:45:02;3.80;63.80
10057;DHT22;5068;51.286;7.518;2023-02-25T06:46:43;3.80;63.70
10057;DHT22;5068;51.286;7.518;2023-02-25T06:48:22;3.80;63.80
10057;DHT22;5068;51.286;7.518;2023-02-25T06:50:00;3.80;63.60
10057;DHT22;5068;51.286;7.518;2023-02-25T06:51:37;3.80;63.50
10057;DHT22;5068;51.286;7.518;2023-02-25T06:53:14;3.80;63.60
10057;DHT22;5068;51.286;7.518;2023-02-25T06:54:53;3.80;63.60
10057;DHT22;5068;51.286;7.518;2023-02-25T06:56:30;3.80;63.70
10057;DHT22;5068;51.286;7.518;2023-02-25T06:58:09;3.80;63.90
10057;DHT22;5068;51.286;7.518;2023-02-25T06:59:48;3.80;63.90
10057;DHT22;5068;51.286;7.518;2023-02-25T07:01:26;3.80;63.90
10057;DHT22;5068;51.286;7.518;2023-02-25T07:03:06;3.80;63.90
10057;DHT22;5068;51.286;7.518;2023-02-25T07:04:47;3.80;63.90
10057;DHT22;5068;51.286;7.518;2023-02-25T07:06:24;3.80;63.90
10057;DHT22;5068;51.286;7.518;2023-02-25T07:08:01;3.80;64.00
10057;DHT22;5068;51.286;7.518;2023-02-25T07:09:39;3.80;64.10
10057;DHT22;5068;51.286;7.518;2023-02-25T07:11:28;3.80;64.00
10057;DHT22;5068;51.286;7.518;2023-02-25T07:13:10;3.80;63.90
10057;DHT22;5068;51.286;7.518;2023-02-25T07:14:47;3.90;63.90
10057;DHT22;5068;51.286;7.518;2023-02-25T07:16:25;3.80;63.70
10057;DHT22;5068;51.286;7.518;2023-02-25T07:18:03;3.90;63.90
10057;DHT22;5068;51.286;7.518;2023-02-25T07:19:41;3.80;63.90
10057;DHT22;5068;51.286;7.518;2023-02-25T07:21:20;3.80;64.10
10057;DHT22;5068;51.286;7.518;2023-02-25T07:22:58;3.80;64.10
10057;DHT22;5068;51.286;7.518;2023-02-25T07:24:41;3.80;64.20
10057;DHT22;5068;51.286;7.518;2023-02-25T07:26:19;3.80;64.30
10057;DHT22;5068;51.286;7.518;2023-02-25T07:27:58;3.80;64.30
10057;DHT22;5068;51.286;7.518;2023-02-25T07:29:35;3.80;64.40
10057;DHT22;5068;51.286;7.518;2023-02-25T07:31:14;3.80;64.50
10057;DHT22;5068;51.286;7.518;2023-02-25T07:32:55;3.80;64.50
10057;DHT22;5068;51.286;7.518;2023-02-25T07:34:33;3.80;64.40
10057;DHT22;5068;51.286;7.518;2023-02-25T07:36:10;3.80;64.40
10057;DHT22;5068;51.286;7.518;2023-02-25T07:37:49;3.80;64.30
10057;DHT22;5068;51.286;7.518;2023-02-25T07:39:30;3.80;64.30
10057;DHT22;5068;51.286;7.518;2023-02-25T07:41:09;3.80;64.40
10057;DHT22;5068;51.286;7.518;2023-02-25T07:42:46;3.80;64.30
10057;DHT22;5068;51.286;7.518;2023-02-25T07:44:26;3.80;64.40
10057;DHT22;5068;51.286;7.518;2023-02-25T07:46:04;3.80;64.40
10057;DHT22;5068;51.286;7.518;2023-02-25T07:47:41;3.80;64.40
10057;DHT22;5068;51.286;7.518;2023-02-25T07:49:18;3.80;64.40
10057;DHT22;5068;51.286;7.518;2023-02-25T07:51:03;3.80;64.20
10057;DHT22;5068;51.286;7.518;2023-02-25T07:52:45;3.80;64.00
10057;DHT22;5068;51.286;7.518;2023-02-25T07:54:27;3.80;63.90
10057;DHT22;5068;51.286;7.518;2023-02-25T07:56:05;3.80;63.90
10057;DHT22;5068;51.286;7.518;2023-02-25T07:57:46;3.80;63.80
10057;DHT22;5068;51.286;7.518;2023-02-25T07:59:26;3.80;63.80
10057;DHT22;5068;51.286;7.518;2023-02-25T08:01:07;3.80;63.90
10057;DHT22;5068;51.286;7.518;2023-02-25T08:02:49;3.80;63.90
10057;DHT22;5068;51.286;7.518;2023-02-25T08:04:28;3.80;64.00
10057;DHT22;5068;51.286;7.518;2023-02-25T08:06:07;3.80;64.10
10057;DHT22;5068;51.286;7.518;2023-02-25T08:07:44;3.80;64.10
10057;DHT22;5068;51.286;7.518;2023-02-25T08:09:21;3.80;64.30
10057;DHT22;5068;51.286;7.518;2023-02-25T08:11:03;3.80;64.50
10057;DHT22;5068;51.286;7.518;2023-02-25T08:12:41;3.80;64.50
10057;DHT22;5068;51.286;7.518;2023-02-25T08:14:18;3.80;65.40
10057;DHT22;5068;51.286;7.518;2023-02-25T08:15:59;3.90;64.50
10057;DHT22;5068;51.286;7.518;2023-02-25T08:17:39;3.90;64.50
10057;DHT22;5068;51.286;7.518;2023-02-25T08:19:23;3.80;64.30
10057;DHT22;5068;51.286;7.518;2023-02-25T08:21:06;3.90;64.30
10057;DHT22;5068;51.286;7.518;2023-02-25T08:22:43;3.90;64.30
10057;DHT22;5068;51.286;7.518;2023-02-25T08:24:20;3.80;64.10
10057;DHT22;5068;51.286;7.518;2023-02-25T08:26:02;3.90;64.10
10057;DHT22;5068;51.286;7.518;2023-02-25T08:27:38;3.90;64.10
10057;DHT22;5068;51.286;7.518;2023-02-25T08:29:17;3.90;64.00
10057;DHT22;5068;51.286;7.518;2023-02-25T08:30:56;3.90;64.00
10057;DHT22;5068;51.286;7.518;2023-02-25T08:32:35;3.90;63.90
10057;DHT22;5068;51.286;7.518;2023-02-25T08:34:15;3.90;63.90
10057;DHT22;5068;51.286;7.518;2023-02-25T08:35:53;3.90;64.00
10057;DHT22;5068;51.286;7.518;2023-02-25T08:37:29;3.90;64.00
10057;DHT22;5068;51.286;7.518;2023-02-25T08:39:06;3.90;64.10
10057;DHT22;5068;51.286;7.518;2023-02-25T08:40:43;3.90;64.20
10057;DHT22;5068;51.286;7.518;2023-02-25T08:42:23;3.90;64.30
10057;DHT22;5068;51.286;7.518;2023-02-25T08:44:03;3.90;64.40
10057;DHT22;5068;51.286;7.518;2023-02-25T08:45:41;3.90;64.50
10057;DHT22;5068;51.286;7.518;2023-02-25T08:47:18;3.90;64.50
10057;DHT22;5068;51.286;7.518;2023-02-25T08:48:54;3.90;64.60
10057;DHT22;5068;51.286;7.518;2023-02-25T08:50:36;3.90;64.60
10057;DHT22;5068;51.286;7.518;2023-02-25T08:52:13;3.90;64.80
10057;DHT22;5068;51.286;7.518;2023-02-25T08:53:51;3.90;64.90
10057;DHT22;5068;51.286;7.518;2023-02-25T08:55:30;3.90;64.80
10057;DHT22;5068;51.286;7.518;2023-02-25T08:57:09;4.00;64.90
10057;DHT22;5068;51.286;7.518;2023-02-25T08:58:48;4.00;64.90
10057;DHT22;5068;51.286;7.518;2023-02-25T09:00:30;4.00;64.80
10057;DHT22;5068;51.286;7.518;2023-02-25T09:02:10;3.90;64.50
10057;DHT22;5068;51.286;7.518;2023-02-25T09:03:54;4.00;64.60
10057;DHT22;5068;51.286;7.518;2023-02-25T09:05:32;4.00;64.50
10057;DHT22;5068;51.286;7.518;2023-02-25T09:07:13;4.00;64.60
10057;DHT22;5068;51.286;7.518;2023-02-25T09:08:59;4.00;64.50
10057;DHT22;5068;51.286;7.518;2023-02-25T09:10:39;4.00;64.70
10057;DHT22;5068;51.286;7.518;2023-02-25T09:12:26;4.00;64.70
10057;DHT22;5068;51.286;7.518;2023-02-25T09:14:13;4.00;64.90
10057;DHT22;5068;51.286;7.518;2023-02-25T09:15:55;4.00;64.80
10057;DHT22;5068;51.286;7.518;2023-02-25T09:17:33;4.10;65.10
10057;DHT22;5068;51.286;7.518;2023-02-25T09:19:11;4.10;65.00
10057;DHT22;5068;51.286;7.518;2023-02-25T09:20:49;4.10;65.00
10057;DHT22;5068;51.286;7.518;2023-02-25T09:22:23;4.10;64.80
10057;DHT22;5068;51.286;7.518;2023-02-25T09:23:57;4.10;64.70
10057;DHT22;5068;51.286;7.518;2023-02-25T09:25:32;4.10;64.60
10057;DHT22;5068;51.286;7.518;2023-02-25T09:27:10;4.20;64.80
10057;DHT22;5068;51.286;7.518;2023-02-25T09:28:47;4.20;64.90
10057;DHT22;5068;51.286;7.518;2023-02-25T09:30:25;4.20;64.80
10057;DHT22;5068;51.286;7.518;2023-02-25T09:32:02;4.20;64.50
10057;DHT22;5068;51.286;7.518;2023-02-25T09:33:40;4.20;64.50
10057;DHT22;5068;51.286;7.518;2023-02-25T09:35:17;4.20;64.60
10057;DHT22;5068;51.286;7.518;2023-02-25T09:36:55;4.20;64.60
10057;DHT22;5068;51.286;7.518;2023-02-25T09:38:33;4.20;64.60
10057;DHT22;5068;51.286;7.518;2023-02-25T09:40:15;4.20;64.50
10057;DHT22;5068;51.286;7.518;2023-02-25T09:42:00;4.30;64.70
10057;DHT22;5068;51.286;7.518;2023-02-25T09:43:46;4.30;64.60
10057;DHT22;5068;51.286;7.518;2023-02-25T09:45:32;4.30;64.60
10057;DHT22;5068;51.286;7.518;2023-02-25T09:47:15;4.40;64.70
10057;DHT22;5068;51.286;7.518;2023-02-25T09:49:00;4.40;64.80
10057;DHT22;5068;51.286;7.518;2023-02-25T09:50:48;4.40;64.60
10057;DHT22;5068;51.286;7.518;2023-02-25T09:52:35;4.40;64.40
10057;DHT22;5068;51.286;7.518;2023-02-25T09:54:19;4.40;64.20
10057;DHT22;5068;51.286;7.518;2023-02-25T09:56:05;4.40;63.70
10057;DHT22;5068;51.286;7.518;2023-02-25T09:57:43;4.40;63.30
10057;DHT22;5068;51.286;7.518;2023-02-25T09:59:29;4.40;62.70
10057;DHT22;5068;51.286;7.518;2023-02-25T10:01:21;4.40;62.00
10057;DHT22;5068;51.286;7.518;2023-02-25T10:03:16;4.40;61.00
10057;DHT22;5068;51.286;7.518;2023-02-25T10:05:15;4.30;60.30
10057;DHT22;5068;51.286;7.518;2023-02-25T10:07:08;4.30;59.70
10057;DHT22;5068;51.286;7.518;2023-02-25T10:09:04;4.20;59.50
10057;DHT22;5068;51.286;7.518;2023-02-25T10:10:56;4.20;59.30
10057;DHT22;5068;51.286;7.518;2023-02-25T10:12:43;4.10;59.30
10057;DHT22;5068;51.286;7.518;2023-02-25T10:14:48;4.10;59.40
10057;DHT22;5068;51.286;7.518;2023-02-25T10:16:49;4.00;59.40
10057;DHT22;5068;51.286;7.518;2023-02-25T10:18:50;3.90;59.60
10057;DHT22;5068;51.286;7.518;2023-02-25T10:20:51;3.90;59.90
10057;DHT22;5068;51.286;7.518;2023-02-25T10:22:46;3.80;60.50
10057;DHT22;5068;51.286;7.518;2023-02-25T10:24:41;3.80;60.80
10057;DHT22;5068;51.286;7.518;2023-02-25T10:26:25;3.80;61.30
10057;DHT22;5068;51.286;7.518;2023-02-25T10:28:13;3.80;61.50
10057;DHT22;5068;51.286;7.518;2023-02-25T10:29:56;3.80;61.60
10057;DHT22;5068;51.286;7.518;2023-02-25T10:31:39;3.80;61.80
10057;DHT22;5068;51.286;7.518;2023-02-25T10:33:23;3.90;62.20
10057;DHT22;5068;51.286;7.518;2023-02-25T10:35:15;3.90;62.70
10057;DHT22;5068;51.286;7.518;2023-02-25T10:37:02;3.90;63.20
10057;DHT22;5068;51.286;7.518;2023-02-25T10:38:47;3.90;63.30
10057;DHT22;5068;51.286;7.518;2023-02-25T10:40:26;4.00;63.40
10057;DHT22;5068;51.286;7.518;2023-02-25T10:42:05;4.00;63.50
10057;DHT22;5068;51.286;7.518;2023-02-25T10:43:43;4.10;64.00
10057;DHT22;5068;51.286;7.518;2023-02-25T10:45:26;4.10;64.70
10057;DHT22;5068;51.286;7.518;2023-02-25T10:47:14;4.20;65.20
10057;DHT22;5068;51.286;7.518;2023-02-25T10:49:12;4.30;65.30
10057;DHT22;5068;51.286;7.518;2023-02-25T10:51:08;4.40;65.30
10057;DHT22;5068;51.286;7.518;2023-02-25T10:52:59;4.40;64.10
10057;DHT22;5068;51.286;7.518;2023-02-25T10:54:45;4.50;62.60
10057;DHT22;5068;51.286;7.518;2023-02-25T10:56:24;4.50;61.30
10057;DHT22;5068;51.286;7.518;2023-02-25T10:58:27;4.40;60.70
10057;DHT22;5068;51.286;7.518;2023-02-25T11:00:22;4.40;59.90
10057;DHT22;5068;51.286;7.518;2023-02-25T11:02:17;4.30;59.70
10057;DHT22;5068;51.286;7.518;2023-02-25T11:04:01;4.30;59.60